createdAt,value
2018-05-10T00:01:29.664Z,100108.73
2018-05-10T00:03:58.089Z,100102.25
2018-05-10T00:06:26.305Z,100105.06
2018-05-10T00:08:55.812Z,100103.81
2018-05-10T00:11:24.001Z,100106.83
2018-05-10T00:13:52.744Z,100110.78
2018-05-10T00:16:20.960Z,100107.11
2018-05-10T00:18:49.189Z,100104.09
2018-05-10T00:21:17.854Z,100101.62
2018-05-10T00:23:46.075Z,100107.81
2018-05-10T00:26:14.395Z,100105.85
2018-05-10T00:28:42.971Z,100108.66
2018-05-10T00:31:11.173Z,100114.90
2018-05-10T00:33:39.388Z,100116.76
2018-05-10T00:36:08.065Z,100117.67
2018-05-10T00:38:36.299Z,100124.69
2018-05-10T00:41:04.622Z,100128.50
2018-05-10T00:43:33.331Z,100138.67
2018-05-10T00:46:01.525Z,100136.86
2018-05-10T00:48:29.765Z,100145.11
2018-05-10T00:50:58.498Z,100146.29
2018-05-10T00:53:26.718Z,100152.70
2018-05-10T00:55:54.941Z,100155.55
2018-05-10T00:58:23.706Z,100154.72
2018-05-10T01:00:51.908Z,100157.94
2018-05-10T01:03:20.142Z,100153.98
2018-05-10T01:05:48.871Z,100157.84
2018-05-10T01:08:17.044Z,100161.14
2018-05-10T01:10:45.797Z,100159.45
2018-05-10T01:13:14.372Z,100160.93
2018-05-10T01:15:42.575Z,100161.12
2018-05-10T01:18:10.955Z,100163.48
2018-05-10T01:20:39.626Z,100164.88
2018-05-10T01:23:07.836Z,100167.79
2018-05-10T01:25:36.183Z,100170.17
2018-05-10T01:28:04.649Z,100165.02
2018-05-10T01:30:32.887Z,100171.39
2018-05-10T01:33:01.203Z,100169.42
2018-05-10T01:35:41.079Z,100177.41
2018-05-10T01:38:09.291Z,100167.79
2018-05-10T01:40:37.476Z,100164.27
2018-05-10T01:43:05.715Z,100164.94
2018-05-10T01:45:34.390Z,100172.70
2018-05-10T01:48:02.615Z,100178.55
2018-05-10T01:50:30.816Z,100180.02
2018-05-10T01:52:59.597Z,100177.70
2018-05-10T01:55:27.798Z,100186.45
2018-05-10T01:57:56.016Z,100179.09
2018-05-10T02:00:24.686Z,100179.58
2018-05-10T02:02:52.879Z,100182.14
2018-05-10T02:05:21.072Z,100179.48
2018-05-10T02:07:49.761Z,100187.88
2018-05-10T02:10:18.012Z,100185.64
2018-05-10T02:12:46.241Z,100187.55
2018-05-10T02:15:15.746Z,100192.41
2018-05-10T02:17:44.012Z,100198.17
2018-05-10T02:20:12.202Z,100205.31
2018-05-10T02:22:41.057Z,100202.55
2018-05-10T02:25:09.280Z,100204.91
2018-05-10T02:27:55.595Z,100201.11
2018-05-10T02:30:26.171Z,100204.79
2018-05-10T02:32:54.402Z,100206.59
2018-05-10T02:35:22.617Z,100208.59
2018-05-10T02:37:51.304Z,100212.78
2018-05-10T02:40:19.539Z,100215.50
2018-05-10T02:42:47.730Z,100217.20
2018-05-10T02:45:16.416Z,100218.59
2018-05-10T02:47:44.680Z,100220.31
2018-05-10T02:50:12.872Z,100229.98
2018-05-10T02:52:41.646Z,100230.89
2018-05-10T02:55:09.879Z,100226.03
2018-05-10T02:57:38.058Z,100222.61
2018-05-10T03:00:06.744Z,100238.89
2018-05-10T03:02:34.985Z,100233.87
2018-05-10T03:05:03.190Z,100243.70
2018-05-10T03:07:31.912Z,100246.48
2018-05-10T03:10:00.122Z,100253.88
2018-05-10T03:12:28.326Z,100257.98
2018-05-10T03:14:57.214Z,100254.97
2018-05-10T03:17:25.446Z,100262.77
2018-05-10T03:19:53.636Z,100260.21
2018-05-10T03:22:22.316Z,100258.48
2018-05-10T03:24:50.529Z,100263.55
2018-05-10T03:27:18.732Z,100256.27
2018-05-10T03:29:47.396Z,100258.52
2018-05-10T03:32:15.624Z,100266.73
2018-05-10T03:34:43.829Z,100265.61
2018-05-10T03:37:12.472Z,100265.48
2018-05-10T03:39:40.723Z,100269.63
2018-05-10T03:42:08.927Z,100271.67
2018-05-10T03:44:37.825Z,100273.51
2018-05-10T03:47:06.068Z,100272.37
2018-05-10T03:49:34.277Z,100282.84
2018-05-10T03:52:02.959Z,100283.97
2018-05-10T03:54:31.208Z,100300.41
2018-05-10T03:56:59.395Z,100297.45
2018-05-10T03:59:28.173Z,100295.58
2018-05-10T04:01:56.405Z,100296.75
2018-05-10T04:04:36.365Z,100291.95
2018-05-10T04:07:16.509Z,100291.41
2018-05-10T04:09:56.635Z,100297.63
2018-05-10T04:12:24.871Z,100301.21
2018-05-10T04:14:53.700Z,100303.14
2018-05-10T04:17:21.897Z,100304.21
2018-05-10T04:19:50.169Z,100309.59
2018-05-10T04:22:18.923Z,100312.07
2018-05-10T04:24:47.131Z,100311.45
2018-05-10T04:27:15.348Z,100315.98
2018-05-10T04:29:43.787Z,100318.48
2018-05-10T04:32:12.015Z,100316.08
2018-05-10T04:34:40.399Z,100320.18
2018-05-10T04:37:08.985Z,100320.20
2018-05-10T04:39:37.178Z,100326.05
2018-05-10T04:42:06.552Z,100330.48
2018-05-10T04:44:34.868Z,100334.66
2018-05-10T04:47:03.583Z,100338.58
2018-05-10T04:49:31.818Z,100345.48
2018-05-10T04:51:59.993Z,100348.89
2018-05-10T04:54:28.790Z,100351.42
2018-05-10T04:56:56.983Z,100355.23
2018-05-10T04:59:25.336Z,100364.61
2018-05-10T05:01:54.039Z,100364.94
2018-05-10T05:04:22.279Z,100368.48
2018-05-10T05:06:50.468Z,100370.08
2018-05-10T05:09:19.255Z,100365.63
2018-05-10T05:11:47.497Z,100369.08
2018-05-10T05:14:15.728Z,100372.13
2018-05-10T05:16:44.338Z,100377.95
2018-05-10T05:19:12.542Z,100381.14
2018-05-10T05:21:40.766Z,100380.03
2018-05-10T05:24:09.552Z,100380.09
2018-05-10T05:26:37.769Z,100379.09
2018-05-10T05:29:06.009Z,100382.57
2018-05-10T05:31:34.773Z,100384.98
2018-05-10T05:34:02.974Z,100384.44
2018-05-10T05:36:31.291Z,100400.26
2018-05-10T05:38:59.861Z,100399.83
2018-05-10T05:41:28.108Z,100406.67
2018-05-10T05:43:56.327Z,100416.23
2018-05-10T05:46:25.040Z,100415.23
2018-05-10T05:48:53.224Z,100423.30
2018-05-10T05:51:21.462Z,100426.27
2018-05-10T05:53:50.264Z,100420.13
2018-05-10T05:56:18.469Z,100417.88
2018-05-10T05:58:46.735Z,100424.33
2018-05-10T06:01:15.430Z,100422.86
2018-05-10T06:03:43.694Z,100422.05
2018-05-10T06:06:11.939Z,100429.05
2018-05-10T06:08:40.654Z,100435.70
2018-05-10T06:11:08.874Z,100442.06
2018-05-10T06:13:37.108Z,100447.84
2018-05-10T06:16:05.899Z,100446.75
2018-05-10T06:18:34.084Z,100457.80
2018-05-10T06:21:02.267Z,100458.52
2018-05-10T06:23:31.053Z,100466.67
2018-05-10T06:25:59.267Z,100469.45
2018-05-10T06:28:27.489Z,100477.64
2018-05-10T06:30:56.254Z,100473.30
2018-05-10T06:33:24.464Z,100474.55
2018-05-10T06:35:52.651Z,100475.36
2018-05-10T06:38:21.374Z,100476.16
2018-05-10T06:40:49.598Z,100481.74
2018-05-10T06:43:17.809Z,100481.39
2018-05-10T06:45:46.625Z,100476.77
2018-05-10T06:48:14.817Z,100474.16
2018-05-10T06:50:43.025Z,100480.16
2018-05-10T06:53:11.754Z,100473.67
2018-05-10T06:55:39.930Z,100478.72
2018-05-10T06:58:08.114Z,100474.85
2018-05-10T07:00:36.918Z,100473.34
2018-05-10T07:03:05.095Z,100475.59
2018-05-10T07:05:33.322Z,100474.08
2018-05-10T07:08:02.179Z,100474.05
2018-05-10T07:10:30.518Z,100477.72
2018-05-10T07:12:59.175Z,100476.20
2018-05-10T07:15:27.820Z,100475.53
2018-05-10T07:17:56.058Z,100478.20
2018-05-10T07:20:24.378Z,100479.80
2018-05-10T07:23:13.824Z,100481.88
2018-05-10T07:25:49.240Z,100488.77
2018-05-10T07:28:17.451Z,100483.41
2018-05-10T07:30:45.676Z,100489.01
2018-05-10T07:33:13.995Z,100496.06
2018-05-10T07:35:42.786Z,100499.38
2018-05-10T07:38:11.002Z,100497.55
2018-05-10T07:40:39.184Z,100502.00
2018-05-10T07:43:07.998Z,100507.00
2018-05-10T07:45:36.194Z,100511.89
2018-05-10T07:48:04.479Z,100522.03
2018-05-10T07:50:33.195Z,100520.55
2018-05-10T07:53:01.371Z,100513.19
2018-05-10T07:55:29.548Z,100518.50
2018-05-10T07:57:58.270Z,100511.48
2018-05-10T08:00:26.479Z,100523.86
2018-05-10T08:02:54.690Z,100514.81
2018-05-10T08:05:23.339Z,100522.70
2018-05-10T08:07:51.559Z,100526.86
2018-05-10T08:10:19.739Z,100529.95
2018-05-10T08:12:48.535Z,100530.47
2018-05-10T08:15:16.753Z,100540.16
2018-05-10T08:17:45.348Z,100535.79
2018-05-10T08:20:14.211Z,100528.95
2018-05-10T08:22:42.441Z,100544.38
2018-05-10T08:25:10.762Z,100543.00
2018-05-10T08:27:47.636Z,100546.99
2018-05-10T08:30:16.085Z,100549.00
2018-05-10T08:32:44.566Z,100551.21
2018-05-10T08:35:12.799Z,100558.59
2018-05-10T08:37:40.980Z,100560.41
2018-05-10T08:40:09.671Z,100576.56
2018-05-10T08:42:37.837Z,100581.11
2018-05-10T08:45:06.172Z,100582.01
2018-05-10T08:47:34.759Z,100588.01
2018-05-10T08:50:02.968Z,100593.26
2018-05-10T08:52:31.361Z,100591.57
2018-05-10T08:54:59.875Z,100599.61
2018-05-10T08:57:28.060Z,100601.88
2018-05-10T08:59:56.528Z,100605.05
2018-05-10T09:02:25.086Z,100607.81
2018-05-10T09:04:53.319Z,100617.75
2018-05-10T09:07:21.777Z,100619.84
2018-05-10T09:09:50.313Z,100620.45
2018-05-10T09:12:18.522Z,100621.73
2018-05-10T09:14:46.868Z,100632.05
2018-05-10T09:17:15.478Z,100631.66
2018-05-10T09:19:43.691Z,100641.94
2018-05-10T09:22:12.105Z,100640.46
2018-05-10T09:24:40.727Z,100638.58
2018-05-10T09:27:10.129Z,100645.55
2018-05-10T09:29:38.316Z,100659.02
2018-05-10T09:32:06.554Z,100662.55
2018-05-10T09:34:35.239Z,100676.81
2018-05-10T09:37:03.403Z,100676.45
2018-05-10T09:39:31.909Z,100682.84
2018-05-10T09:42:00.385Z,100678.73
2018-05-10T09:44:28.542Z,100687.34
2018-05-10T09:46:56.814Z,100684.77
2018-05-10T09:49:25.634Z,100689.83
2018-05-10T09:51:53.819Z,100696.00
2018-05-10T09:54:22.379Z,100693.86
2018-05-10T09:56:50.689Z,100694.95
2018-05-10T09:59:18.880Z,100700.41
2018-05-10T10:01:47.180Z,100698.88
2018-05-10T10:04:15.917Z,100715.60
2018-05-10T10:06:44.100Z,100719.28
2018-05-10T10:09:12.297Z,100715.72
2018-05-10T10:11:41.515Z,100728.17
2018-05-10T10:14:09.725Z,100723.02
2018-05-10T10:16:38.285Z,100731.61
2018-05-10T10:19:06.911Z,100737.48
2018-05-10T10:21:35.207Z,100739.44
2018-05-10T10:24:03.418Z,100748.86
2018-05-10T10:26:32.004Z,100747.92
2018-05-10T10:29:00.228Z,100753.33
2018-05-10T10:31:28.551Z,100760.53
2018-05-10T10:33:57.136Z,100764.92
2018-05-10T10:36:25.350Z,100765.86
2018-05-10T10:38:53.686Z,100771.70
2018-05-10T10:41:23.935Z,100774.80
2018-05-10T10:43:52.617Z,100774.67
2018-05-10T10:46:20.838Z,100776.37
2018-05-10T10:48:49.062Z,100776.20
2018-05-10T10:51:17.805Z,100785.44
2018-05-10T10:53:46.132Z,100788.34
2018-05-10T10:56:14.261Z,100794.52
2018-05-10T10:58:43.087Z,100805.09
2018-05-10T11:01:11.335Z,100797.45
2018-05-10T11:03:39.563Z,100804.95
2018-05-10T11:06:08.159Z,100818.69
2018-05-10T11:08:36.423Z,100821.06
2018-05-10T11:11:04.662Z,100838.16
2018-05-10T11:13:33.618Z,100834.30
2018-05-10T11:16:02.568Z,100839.84
2018-05-10T11:18:30.785Z,100840.36
2018-05-10T11:20:59.012Z,100842.78
2018-05-10T11:23:27.605Z,100848.08
2018-05-10T11:25:55.812Z,100856.24
2018-05-10T11:28:24.052Z,100858.80
2018-05-10T11:30:52.869Z,100859.02
2018-05-10T11:33:27.965Z,100863.34
2018-05-10T11:35:56.194Z,100864.97
2018-05-10T11:38:24.405Z,100868.57
2018-05-10T11:40:53.100Z,100874.45
2018-05-10T11:43:21.314Z,100875.55
2018-05-10T11:45:49.675Z,100876.14
2018-05-10T11:48:18.353Z,100880.59
2018-05-10T11:50:46.551Z,100886.60
2018-05-10T11:53:14.824Z,100881.85
2018-05-10T11:55:43.515Z,100886.03
2018-05-10T11:58:11.718Z,100884.94
2018-05-10T12:00:46.543Z,100892.34
2018-05-10T12:03:14.898Z,100891.98
2018-05-10T12:05:43.631Z,100899.95
2018-05-10T12:08:12.501Z,100898.20
2018-05-10T12:42:17.832Z,100912.53
2018-05-10T12:44:46.360Z,100912.45
2018-05-10T12:47:15.247Z,100913.83
2018-05-10T12:49:43.364Z,100918.03
2018-05-10T12:52:11.572Z,100914.09
2018-05-10T12:54:40.291Z,100918.79
2018-05-10T12:57:08.465Z,100922.32
2018-05-10T12:59:36.662Z,100925.70
2018-05-10T13:02:05.427Z,100930.71
2018-05-10T13:04:33.642Z,100931.14
2018-05-10T13:07:01.872Z,100930.34
2018-05-10T13:09:30.563Z,100932.22
2018-05-10T13:11:58.771Z,100932.25
2018-05-10T13:14:27.465Z,100935.23
2018-05-10T13:16:56.138Z,100933.08
2018-05-10T13:19:24.434Z,100937.57
2018-05-10T13:21:53.237Z,100939.73
2018-05-10T13:24:22.035Z,100941.73
2018-05-10T13:26:50.243Z,100950.16
2018-05-10T13:29:18.582Z,100953.42
2018-05-10T13:31:47.393Z,100955.28
2018-05-10T13:34:16.401Z,100957.05
2018-05-10T13:36:44.609Z,100957.66
2018-05-10T13:39:13.442Z,100955.09
2018-05-10T13:41:42.331Z,100958.48
2018-05-10T13:44:10.573Z,100951.82
2018-05-10T13:46:38.813Z,100959.50
2018-05-10T13:49:07.795Z,100957.05
2018-05-10T13:51:36.476Z,100960.17
2018-05-10T13:54:04.704Z,100966.88
2018-05-10T13:56:33.465Z,100973.74
2018-05-10T13:59:02.508Z,100972.89
2018-05-10T14:01:31.401Z,100976.95
2018-05-10T14:03:59.586Z,100963.66
2018-05-10T14:06:28.411Z,100970.45
2018-05-10T14:08:57.322Z,100976.39
2018-05-10T14:11:25.542Z,100983.03
2018-05-10T14:13:53.726Z,100979.98
2018-05-10T14:16:22.378Z,100981.52
2018-05-10T14:18:50.793Z,100980.23
2018-05-10T14:21:18.990Z,100979.20
2018-05-10T14:23:47.747Z,100983.39
2018-05-10T14:26:16.430Z,100988.93
2018-05-10T14:28:44.680Z,100990.13
2018-05-10T14:31:13.446Z,100987.55
2018-05-10T14:33:42.460Z,100989.83
2018-05-10T14:36:11.370Z,100982.57
2018-05-10T14:38:39.592Z,100986.67
2018-05-10T14:41:08.375Z,100985.66
2018-05-10T14:43:36.845Z,100988.19
2018-05-10T14:46:05.072Z,100982.89
2018-05-10T14:48:33.376Z,100984.67
2018-05-10T14:51:02.033Z,100977.44
2018-05-10T14:53:30.252Z,100980.38
2018-05-10T14:55:58.543Z,100982.97
2018-05-10T14:58:27.051Z,100981.67
2018-05-10T15:00:55.250Z,100981.22
2018-05-10T15:03:23.706Z,100988.15
2018-05-10T15:05:52.311Z,100990.77
2018-05-10T15:08:20.597Z,100990.47
2018-05-10T15:10:48.924Z,100988.41
2018-05-10T15:13:17.475Z,100994.25
2018-05-10T15:15:45.672Z,100986.86
2018-05-10T15:18:13.841Z,100994.03
2018-05-10T15:20:42.588Z,100995.55
2018-05-10T15:23:10.793Z,100999.05
2018-05-10T15:25:39.044Z,101004.14
2018-05-10T15:28:07.759Z,101007.28
2018-05-10T15:30:36.127Z,101005.14
2018-05-10T15:33:04.600Z,101003.68
2018-05-10T15:35:33.464Z,101006.13
2018-05-10T15:38:01.634Z,101009.80
2018-05-10T15:40:29.835Z,101015.89
2018-05-10T15:42:59.096Z,101023.18
2018-05-10T15:45:27.282Z,101019.87
2018-05-10T15:47:55.733Z,101029.17
2018-05-10T15:50:24.223Z,101034.05
2018-05-10T15:52:52.390Z,101046.84
2018-05-10T15:55:20.867Z,101039.78
2018-05-10T15:57:49.469Z,101050.63
2018-05-10T16:00:17.656Z,101053.17
2018-05-10T16:02:46.013Z,101057.84
2018-05-10T16:05:14.544Z,101052.93
2018-05-10T16:07:42.729Z,101079.83
2018-05-10T16:10:11.528Z,101063.20
2018-05-10T16:12:40.147Z,101063.71
2018-05-10T16:15:08.530Z,101064.55
2018-05-10T16:17:37.298Z,101074.67
2018-05-10T16:20:05.780Z,101089.38
2018-05-10T16:22:33.994Z,101085.00
2018-05-10T16:25:02.473Z,101090.70
2018-05-10T16:27:31.036Z,101095.75
2018-05-10T16:29:59.250Z,101103.47
2018-05-10T16:32:27.584Z,101099.34
2018-05-10T16:34:56.160Z,101103.39
2018-05-10T16:37:24.367Z,101114.64
2018-05-10T16:40:01.823Z,101120.35
2018-05-10T16:42:31.284Z,101114.41
2018-05-10T16:44:59.518Z,101126.21
2018-05-10T16:47:27.823Z,101123.70
2018-05-10T16:49:56.459Z,101135.81
2018-05-10T16:52:24.643Z,101132.73
2018-05-10T16:54:52.832Z,101144.25
2018-05-10T16:57:21.572Z,101145.61
2018-05-10T16:59:49.796Z,101146.75
2018-05-10T17:02:18.124Z,101150.22
2018-05-10T17:04:47.100Z,101157.74
2018-05-10T17:07:15.324Z,101153.98
2018-05-10T17:09:43.826Z,101158.36
2018-05-10T17:12:12.504Z,101161.19
2018-05-10T17:14:40.694Z,101167.42
2018-05-10T17:17:09.062Z,101171.45
2018-05-10T17:19:37.621Z,101175.24
2018-05-10T17:22:05.822Z,101177.88
2018-05-10T17:24:34.189Z,101174.52
2018-05-10T17:27:02.856Z,101176.77
2018-05-10T17:29:31.029Z,101192.92
2018-05-10T17:31:59.421Z,101202.06
2018-05-10T17:34:28.006Z,101206.18
2018-05-10T17:36:56.217Z,101205.66
2018-05-10T17:39:24.501Z,101210.56
2018-05-10T17:41:53.125Z,101207.98
2018-05-10T17:44:21.311Z,101203.69
2018-05-10T17:46:49.830Z,101217.26
2018-05-10T17:49:18.311Z,101222.02
2018-05-10T17:51:46.641Z,101227.00
2018-05-10T17:54:15.281Z,101236.68
2018-05-10T17:56:43.754Z,101235.95
2018-05-10T17:59:11.947Z,101244.47
2018-05-10T18:01:40.980Z,101244.35
2018-05-10T18:04:09.837Z,101246.62
2018-05-10T18:06:38.892Z,101254.00
2018-05-10T18:09:07.055Z,101265.87
2018-05-10T18:11:36.268Z,101267.87
2018-05-10T18:14:05.192Z,101270.08
2018-05-10T18:16:33.930Z,101268.78
2018-05-10T18:19:02.132Z,101275.18
2018-05-10T18:21:31.080Z,101278.87
2018-05-10T18:23:59.961Z,101284.53
2018-05-10T18:26:29.006Z,101290.49
2018-05-10T18:28:57.175Z,101294.86
2018-05-10T18:31:26.099Z,101295.27
2018-05-10T18:33:54.919Z,101307.87
2018-05-10T18:36:23.510Z,101307.31
2018-05-10T18:38:53.148Z,101315.96
2018-05-10T18:41:21.376Z,101326.97
2018-05-10T18:43:50.180Z,101330.97
2018-05-10T18:46:18.437Z,101339.72
2018-05-10T18:48:46.624Z,101343.79
2018-05-10T18:51:15.632Z,101347.16
2018-05-10T18:53:44.349Z,101347.48
2018-05-10T18:56:12.564Z,101352.82
2018-05-10T18:58:41.393Z,101360.48
2018-05-10T19:01:10.250Z,101361.75
2018-05-10T19:03:39.250Z,101360.33
2018-05-10T19:06:07.506Z,101361.99
2018-05-10T19:08:36.403Z,101367.94
2018-05-10T19:11:05.837Z,101371.48
2018-05-10T19:13:34.277Z,101373.94
2018-05-10T19:16:03.107Z,101377.07
2018-05-10T19:18:31.555Z,101387.15
2018-05-10T19:21:00.485Z,101387.56
2018-05-10T19:23:29.372Z,101394.16
2018-05-10T19:25:57.576Z,101398.34
2018-05-10T19:28:26.399Z,101407.27
2018-05-10T19:30:55.390Z,101408.27
2018-05-10T19:33:24.429Z,101409.34
2018-05-10T19:35:52.621Z,101412.91
2018-05-10T19:38:21.437Z,101416.80
2018-05-10T19:40:50.406Z,101421.79
2018-05-10T19:43:18.758Z,101422.24
2018-05-10T19:45:46.934Z,101429.34
2018-05-10T19:48:15.832Z,101440.44
2018-05-10T19:50:44.409Z,101437.37
2018-05-10T19:53:12.628Z,101441.16
2018-05-10T19:55:41.465Z,101440.70
2018-05-10T19:58:10.329Z,101451.37
2018-05-10T20:00:39.356Z,101457.53
2018-05-10T20:03:07.524Z,101460.98
2018-05-10T20:05:36.409Z,101468.27
2018-05-10T20:08:05.447Z,101464.88
2018-05-10T20:10:34.401Z,101479.11
2018-05-10T20:13:02.774Z,101484.90
2018-05-10T20:15:31.503Z,101483.42
2018-05-10T20:18:00.318Z,101489.50
2018-05-10T20:20:28.545Z,101494.23
2018-05-10T20:22:56.730Z,101501.11
2018-05-10T20:25:25.430Z,101505.84
2018-05-10T20:27:54.427Z,101508.48
2018-05-10T20:30:22.595Z,101511.30
2018-05-10T20:32:50.799Z,101513.06
2018-05-10T20:35:19.596Z,101522.02
2018-05-10T20:37:47.782Z,101519.70
2018-05-10T20:40:16.707Z,101524.12
2018-05-10T20:42:45.786Z,101524.55
2018-05-10T20:45:14.686Z,101528.70
2018-05-10T20:47:42.873Z,101538.39
2018-05-10T20:50:11.722Z,101540.05
2018-05-10T20:52:40.211Z,101544.69
2018-05-10T20:55:08.479Z,101542.08
2018-05-10T20:57:36.831Z,101550.45
2018-05-10T21:00:05.336Z,101550.02
2018-05-10T21:02:33.530Z,101551.92
2018-05-10T21:05:01.950Z,101548.91
2018-05-10T21:07:30.556Z,101554.00
2018-05-10T21:09:58.792Z,101555.41
2018-05-10T21:12:47.925Z,101559.86
2018-05-10T21:15:16.419Z,101560.20
2018-05-10T21:17:45.215Z,101563.66
2018-05-10T21:20:13.390Z,101567.56
2018-05-10T21:22:41.633Z,101571.36
2018-05-10T21:25:10.334Z,101572.69
2018-05-10T21:27:38.504Z,101576.83
2018-05-10T21:30:07.029Z,101584.05
2018-05-10T21:32:35.225Z,101582.03
2018-05-10T21:35:04.603Z,101594.53
2018-05-10T21:37:33.221Z,101596.52
2018-05-10T21:40:01.908Z,101600.20
2018-05-10T21:42:30.128Z,101599.53
2018-05-10T21:44:58.422Z,101596.31
2018-05-10T21:47:26.974Z,101596.89
2018-05-10T21:50:04.868Z,101599.02
2018-05-10T21:52:33.696Z,101601.98
2018-05-10T21:55:02.322Z,101600.30
2018-05-10T21:57:30.465Z,101595.14
2018-05-10T21:59:58.728Z,101607.53
2018-05-10T22:02:27.425Z,101608.11
2018-05-10T22:04:55.613Z,101606.81
2018-05-10T22:07:23.979Z,101609.73
2018-05-10T22:09:52.548Z,101618.53
2018-05-10T22:12:20.797Z,101609.53
2018-05-10T22:14:49.205Z,101612.69
2018-05-10T22:17:17.773Z,101612.53
2018-05-10T22:19:46.040Z,101614.24
2018-05-10T22:22:14.375Z,101611.73
2018-05-10T22:24:42.850Z,101614.47
2018-05-10T22:27:11.031Z,101618.13
2018-05-10T22:29:39.397Z,101620.53
2018-05-10T22:32:08.063Z,101622.04
2018-05-10T22:34:36.252Z,101623.50
2018-05-10T22:37:04.631Z,101623.56
2018-05-10T22:39:33.199Z,101619.19
2018-05-10T22:42:01.421Z,101623.23
2018-05-10T22:44:29.831Z,101630.52
2018-05-10T22:46:58.387Z,101631.04
2018-05-10T22:49:26.642Z,101631.08
2018-05-10T22:51:54.906Z,101634.89
2018-05-10T22:54:23.537Z,101636.45
2018-05-10T22:56:51.721Z,101631.83
2018-05-10T22:59:20.134Z,101634.16
2018-05-10T23:01:48.748Z,101636.39
2018-05-10T23:04:17.007Z,101637.83
2018-05-10T23:06:45.362Z,101638.66
2018-05-10T23:09:13.965Z,101641.05
2018-05-10T23:11:42.140Z,101639.61
2018-05-10T23:14:10.599Z,101637.16
2018-05-10T23:16:39.169Z,101639.12
2018-05-10T23:19:07.383Z,101644.24
2018-05-10T23:21:35.732Z,101638.06
2018-05-10T23:24:04.345Z,101645.25
2018-05-10T23:26:32.566Z,101638.53
2018-05-10T23:29:00.965Z,101643.68
2018-05-10T23:31:29.610Z,101642.44
2018-05-10T23:33:57.787Z,101643.08
2018-05-10T23:36:26.115Z,101634.08
2018-05-10T23:38:54.687Z,101640.26
2018-05-10T23:41:22.866Z,101641.13
2018-05-10T23:43:51.227Z,101642.52
2018-05-10T23:46:19.891Z,101643.09
2018-05-10T23:48:48.151Z,101656.03
2018-05-10T23:51:16.389Z,101656.20
2018-05-10T23:53:45.078Z,101658.16
2018-05-10T23:56:13.294Z,101662.95
2018-05-10T23:58:41.628Z,101664.02
